sensor_id;sensor_type;location;lat;lon;timestamp;pressure;altitude;pressure_sealevel;temperature;humidity
2675;BME280;1347;42.122;24.746;2023-02-11T00:02:20;101507.72;;;-4.92;70.57
2675;BME280;1347;42.122;24.746;2023-02-11T00:04:48;101511.94;;;-4.85;70.07
2675;BME280;1347;42.122;24.746;2023-02-11T00:07:14;101521.19;;;-4.80;70.28
2675;BME280;1347;42.122;24.746;2023-02-11T00:09:41;101515.03;;;-4.81;70.23
2675;BME280;1347;42.122;24.746;2023-02-11T00:12:09;101519.47;;;-4.75;70.22
2675;BME280;1347;42.122;24.746;2023-02-11T00:14:36;101520.47;;;-4.69;69.78
2675;BME280;1347;42.122;24.746;2023-02-11T00:17:03;101525.75;;;-4.63;69.75
2675;BME280;1347;42.122;24.746;2023-02-11T00:19:30;101516.84;;;-4.57;69.61
2675;BME280;1347;42.122;24.746;2023-02-11T00:21:57;101526.97;;;-4.59;69.10
2675;BME280;1347;42.122;24.746;2023-02-11T00:24:24;101523.22;;;-4.58;69.05
2675;BME280;1347;42.122;24.746;2023-02-11T00:26:50;101522.34;;;-4.52;69.24
2675;BME280;1347;42.122;24.746;2023-02-11T00:29:19;101514.63;;;-4.41;68.80
2675;BME280;1347;42.122;24.746;2023-02-11T00:31:46;101506.63;;;-4.41;68.59
2675;BME280;1347;42.122;24.746;2023-02-11T00:34:13;101511.75;;;-4.40;68.55
2675;BME280;1347;42.122;24.746;2023-02-11T00:36:40;101503.03;;;-4.35;68.23
2675;BME280;1347;42.122;24.746;2023-02-11T00:39:07;101516.19;;;-4.34;68.15
2675;BME280;1347;42.122;24.746;2023-02-11T00:41:34;101509.38;;;-4.30;67.99
2675;BME280;1347;42.122;24.746;2023-02-11T00:44:01;101512.66;;;-4.28;67.80
2675;BME280;1347;42.122;24.746;2023-02-11T00:46:30;101508.47;;;-4.24;67.59
2675;BME280;1347;42.122;24.746;2023-02-11T00:48:57;101509.69;;;-4.20;67.23
2675;BME280;1347;42.122;24.746;2023-02-11T00:51:24;101505.34;;;-4.21;67.30
2675;BME280;1347;42.122;24.746;2023-02-11T00:53:50;101503.94;;;-4.23;67.13
2675;BME280;1347;42.122;24.746;2023-02-11T00:56:18;101514.66;;;-4.23;67.01
2675;BME280;1347;42.122;24.746;2023-02-11T00:58:45;101503.72;;;-4.22;67.30
2675;BME280;1347;42.122;24.746;2023-02-11T01:01:12;101494.69;;;-4.27;67.10
2675;BME280;1347;42.122;24.746;2023-02-11T01:03:40;101503.94;;;-4.23;67.47
2675;BME280;1347;42.122;24.746;2023-02-11T01:06:08;101503.84;;;-4.17;66.92
2675;BME280;1347;42.122;24.746;2023-02-11T01:08:35;101497.94;;;-4.19;67.29
2675;BME280;1347;42.122;24.746;2023-02-11T01:11:04;101501.84;;;-4.21;67.33
2675;BME280;1347;42.122;24.746;2023-02-11T01:13:33;101500.22;;;-4.22;67.45
2675;BME280;1347;42.122;24.746;2023-02-11T01:16:02;101501.03;;;-4.22;67.66
2675;BME280;1347;42.122;24.746;2023-02-11T01:18:29;101493.84;;;-4.21;67.68
2675;BME280;1347;42.122;24.746;2023-02-11T01:20:58;101493.22;;;-4.23;67.43
2675;BME280;1347;42.122;24.746;2023-02-11T01:23:24;101489.66;;;-4.17;67.43
2675;BME280;1347;42.122;24.746;2023-02-11T01:25:51;101484.47;;;-4.30;67.63
2675;BME280;1347;42.122;24.746;2023-02-11T01:28:21;101477.56;;;-4.38;68.14
2675;BME280;1347;42.122;24.746;2023-02-11T01:30:48;101478.13;;;-4.36;68.00
2675;BME280;1347;42.122;24.746;2023-02-11T01:33:15;101471.13;;;-4.37;68.07
2675;BME280;1347;42.122;24.746;2023-02-11T01:35:43;101469.22;;;-4.30;68.31
2675;BME280;1347;42.122;24.746;2023-02-11T01:38:15;101475.81;;;-4.32;68.33
2675;BME280;1347;42.122;24.746;2023-02-11T01:40:46;101469.22;;;-4.30;68.16
2675;BME280;1347;42.122;24.746;2023-02-11T01:43:13;101469.66;;;-4.33;68.20
2675;BME280;1347;42.122;24.746;2023-02-11T01:45:57;101465.25;;;-4.27;67.97
2675;BME280;1347;42.122;24.746;2023-02-11T01:48:28;101463.25;;;-4.32;68.34
2675;BME280;1347;42.122;24.746;2023-02-11T01:51:02;101460.22;;;-4.35;68.50
2675;BME280;1347;42.122;24.746;2023-02-11T01:53:32;101463.47;;;-4.33;68.49
2675;BME280;1347;42.122;24.746;2023-02-11T01:56:19;101465.84;;;-4.25;68.31
2675;BME280;1347;42.122;24.746;2023-02-11T01:59:07;101464.31;;;-4.33;68.70
2675;BME280;1347;42.122;24.746;2023-02-11T02:01:38;101465.25;;;-4.27;68.49
2675;BME280;1347;42.122;24.746;2023-02-11T02:04:07;101462.75;;;-4.22;68.49
2675;BME280;1347;42.122;24.746;2023-02-11T02:06:39;101463.66;;;-4.28;68.06
2675;BME280;1347;42.122;24.746;2023-02-11T02:09:15;101463.56;;;-4.58;68.42
2675;BME280;1347;42.122;24.746;2023-02-11T02:11:44;101465.88;;;-4.87;69.44
2675;BME280;1347;42.122;24.746;2023-02-11T02:14:11;101464.91;;;-5.17;70.07
2675;BME280;1347;42.122;24.746;2023-02-11T02:16:38;101456.34;;;-5.50;71.33
2675;BME280;1347;42.122;24.746;2023-02-11T02:19:23;101452.75;;;-5.69;72.33
2675;BME280;1347;42.122;24.746;2023-02-11T02:25:13;101457.25;;;-5.95;73.79
2675;BME280;1347;42.122;24.746;2023-02-11T02:27:54;101452.13;;;-5.96;74.23
2675;BME280;1347;42.122;24.746;2023-02-11T02:33:39;101456.69;;;-6.03;74.19
2675;BME280;1347;42.122;24.746;2023-02-11T02:36:13;101462.28;;;-6.18;74.83
2675;BME280;1347;42.122;24.746;2023-02-11T02:38:47;101467.84;;;-6.26;75.27
2675;BME280;1347;42.122;24.746;2023-02-11T02:41:18;101470.56;;;-6.33;75.64
2675;BME280;1347;42.122;24.746;2023-02-11T02:43:48;101467.69;;;-6.38;75.80
2675;BME280;1347;42.122;24.746;2023-02-11T02:46:17;101463.59;;;-6.47;76.09
2675;BME280;1347;42.122;24.746;2023-02-11T02:48:47;101470.75;;;-6.41;75.96
2675;BME280;1347;42.122;24.746;2023-02-11T02:51:30;101481.88;;;-6.44;75.83
2675;BME280;1347;42.122;24.746;2023-02-11T02:54:18;101479.81;;;-6.42;76.30
2675;BME280;1347;42.122;24.746;2023-02-11T02:56:53;101483.47;;;-6.36;76.23
2675;BME280;1347;42.122;24.746;2023-02-11T02:59:29;101481.44;;;-6.34;76.38
2675;BME280;1347;42.122;24.746;2023-02-11T03:02:05;101479.78;;;-6.35;76.42
2675;BME280;1347;42.122;24.746;2023-02-11T03:04:45;101472.59;;;-6.35;76.72
2675;BME280;1347;42.122;24.746;2023-02-11T03:07:19;101473.84;;;-6.37;76.03
2675;BME280;1347;42.122;24.746;2023-02-11T03:09:53;101472.19;;;-6.38;76.22
2675;BME280;1347;42.122;24.746;2023-02-11T03:12:23;101473.44;;;-6.41;76.00
2675;BME280;1347;42.122;24.746;2023-02-11T03:14:53;101477.75;;;-6.40;76.29
2675;BME280;1347;42.122;24.746;2023-02-11T03:17:21;101483.50;;;-6.43;76.40
2675;BME280;1347;42.122;24.746;2023-02-11T03:19:51;101479.16;;;-6.37;76.54
2675;BME280;1347;42.122;24.746;2023-02-11T03:22:21;101476.09;;;-6.34;76.37
2675;BME280;1347;42.122;24.746;2023-02-11T03:24:50;101472.81;;;-6.36;76.15
2675;BME280;1347;42.122;24.746;2023-02-11T03:27:20;101474.69;;;-6.43;76.46
2675;BME280;1347;42.122;24.746;2023-02-11T03:29:53;101476.28;;;-6.29;76.73
2675;BME280;1347;42.122;24.746;2023-02-11T03:32:24;101466.41;;;-6.28;76.63
2675;BME280;1347;42.122;24.746;2023-02-11T03:34:56;101471.31;;;-6.19;76.75
2675;BME280;1347;42.122;24.746;2023-02-11T03:37:27;101472.56;;;-6.28;76.68
2675;BME280;1347;42.122;24.746;2023-02-11T03:39:59;101477.25;;;-6.17;76.94
2675;BME280;1347;42.122;24.746;2023-02-11T03:42:31;101475.25;;;-6.28;77.16
2675;BME280;1347;42.122;24.746;2023-02-11T03:45:03;101476.28;;;-6.29;77.04
2675;BME280;1347;42.122;24.746;2023-02-11T03:47:33;101479.34;;;-6.25;77.17
2675;BME280;1347;42.122;24.746;2023-02-11T03:50:05;101478.94;;;-6.22;77.08
2675;BME280;1347;42.122;24.746;2023-02-11T03:52:34;101479.50;;;-6.20;77.17
2675;BME280;1347;42.122;24.746;2023-02-11T03:55:05;101480.34;;;-6.20;77.04
2675;BME280;1347;42.122;24.746;2023-02-11T03:57:32;101477.28;;;-6.30;77.21
2675;BME280;1347;42.122;24.746;2023-02-11T04:00:00;101479.75;;;-6.28;77.81
2675;BME280;1347;42.122;24.746;2023-02-11T04:02:30;101474.00;;;-6.25;77.82
2675;BME280;1347;42.122;24.746;2023-02-11T04:04:58;101478.56;;;-6.39;78.18
2675;BME280;1347;42.122;24.746;2023-02-11T04:07:27;101479.38;;;-6.32;77.79
2675;BME280;1347;42.122;24.746;2023-02-11T04:09:54;101476.72;;;-6.39;78.23
2675;BME280;1347;42.122;24.746;2023-02-11T04:12:21;101474.91;;;-6.45;78.24
2675;BME280;1347;42.122;24.746;2023-02-11T04:14:47;101477.56;;;-6.51;79.27
2675;BME280;1347;42.122;24.746;2023-02-11T04:17:14;101478.19;;;-6.43;79.18
2675;BME280;1347;42.122;24.746;2023-02-11T04:19:41;101479.81;;;-6.48;78.18
2675;BME280;1347;42.122;24.746;2023-02-11T04:22:09;101480.28;;;-6.64;77.87
2675;BME280;1347;42.122;24.746;2023-02-11T04:24:37;101478.03;;;-6.74;78.12
2675;BME280;1347;42.122;24.746;2023-02-11T04:27:04;101471.69;;;-6.86;78.31
2675;BME280;1347;42.122;24.746;2023-02-11T04:29:31;101465.13;;;-6.84;79.10
2675;BME280;1347;42.122;24.746;2023-02-11T04:31:58;101468.22;;;-6.87;78.33
2675;BME280;1347;42.122;24.746;2023-02-11T04:34:25;101471.06;;;-6.88;78.84
2675;BME280;1347;42.122;24.746;2023-02-11T04:36:51;101466.16;;;-6.85;78.85
2675;BME280;1347;42.122;24.746;2023-02-11T04:39:18;101459.59;;;-6.82;78.40
2675;BME280;1347;42.122;24.746;2023-02-11T04:41:47;101463.25;;;-6.77;78.97
2675;BME280;1347;42.122;24.746;2023-02-11T04:44:14;101465.28;;;-6.59;79.24
2675;BME280;1347;42.122;24.746;2023-02-11T04:46:41;101455.41;;;-6.45;78.91
2675;BME280;1347;42.122;24.746;2023-02-11T04:49:09;101464.19;;;-6.38;78.36
2675;BME280;1347;42.122;24.746;2023-02-11T04:51:37;101459.06;;;-6.40;78.39
2675;BME280;1347;42.122;24.746;2023-02-11T04:54:04;101459.22;;;-6.28;78.42
2675;BME280;1347;42.122;24.746;2023-02-11T04:56:30;101450.00;;;-6.25;78.12
2675;BME280;1347;42.122;24.746;2023-02-11T04:58:59;101447.50;;;-6.20;77.92
2675;BME280;1347;42.122;24.746;2023-02-11T05:01:26;101455.91;;;-6.17;77.96
2675;BME280;1347;42.122;24.746;2023-02-11T05:03:53;101457.75;;;-6.11;77.94
2675;BME280;1347;42.122;24.746;2023-02-11T05:06:19;101452.56;;;-6.06;77.67
2675;BME280;1347;42.122;24.746;2023-02-11T05:08:47;101457.69;;;-6.04;77.89
2675;BME280;1347;42.122;24.746;2023-02-11T05:11:16;101453.75;;;-5.95;77.46
2675;BME280;1347;42.122;24.746;2023-02-11T05:13:43;101444.75;;;-6.01;77.44
2675;BME280;1347;42.122;24.746;2023-02-11T05:16:12;101455.19;;;-5.99;77.53
2675;BME280;1347;42.122;24.746;2023-02-11T05:18:40;101454.97;;;-5.91;77.45
2675;BME280;1347;42.122;24.746;2023-02-11T05:21:07;101453.47;;;-5.87;77.25
2675;BME280;1347;42.122;24.746;2023-02-11T05:23:35;101454.53;;;-5.88;77.00
2675;BME280;1347;42.122;24.746;2023-02-11T05:26:02;101454.38;;;-5.93;77.30
2675;BME280;1347;42.122;24.746;2023-02-11T05:28:30;101458.88;;;-5.93;77.14
2675;BME280;1347;42.122;24.746;2023-02-11T05:30:57;101456.81;;;-5.91;77.15
2675;BME280;1347;42.122;24.746;2023-02-11T05:33:25;101453.53;;;-5.93;77.12
2675;BME280;1347;42.122;24.746;2023-02-11T05:35:57;101458.88;;;-5.93;77.62
2675;BME280;1347;42.122;24.746;2023-02-11T05:38:24;101467.81;;;-6.13;77.71
2675;BME280;1347;42.122;24.746;2023-02-11T05:40:51;101468.63;;;-6.12;77.77
2675;BME280;1347;42.122;24.746;2023-02-11T05:43:18;101470.09;;;-6.23;78.09
2675;BME280;1347;42.122;24.746;2023-02-11T05:45:44;101462.56;;;-6.33;77.97
2675;BME280;1347;42.122;24.746;2023-02-11T05:48:11;101473.22;;;-6.33;77.69
2675;BME280;1347;42.122;24.746;2023-02-11T05:50:40;101475.31;;;-6.41;77.77
2675;BME280;1347;42.122;24.746;2023-02-11T05:53:07;101475.69;;;-6.31;77.52
2675;BME280;1347;42.122;24.746;2023-02-11T05:55:34;101473.44;;;-6.34;77.08
2675;BME280;1347;42.122;24.746;2023-02-11T05:58:01;101478.13;;;-6.23;77.32
2675;BME280;1347;42.122;24.746;2023-02-11T06:00:28;101484.44;;;-6.11;77.01
2675;BME280;1347;42.122;24.746;2023-02-11T06:02:54;101479.91;;;-5.72;77.07
2675;BME280;1347;42.122;24.746;2023-02-11T06:05:21;101484.09;;;-5.27;76.33
2675;BME280;1347;42.122;24.746;2023-02-11T06:07:50;101477.72;;;-4.76;74.13
2675;BME280;1347;42.122;24.746;2023-02-11T06:10:17;101471.28;;;-4.32;71.96
2675;BME280;1347;42.122;24.746;2023-02-11T06:12:43;101472.78;;;-3.69;69.96
2675;BME280;1347;42.122;24.746;2023-02-11T06:15:10;101475.63;;;-3.00;67.68
2675;BME280;1347;42.122;24.746;2023-02-11T06:17:37;101481.69;;;-2.34;64.07
2675;BME280;1347;42.122;24.746;2023-02-11T06:20:06;101474.22;;;-1.35;61.93
2675;BME280;1347;42.122;24.746;2023-02-11T06:22:34;101478.53;;;-0.67;58.97
2675;BME280;1347;42.122;24.746;2023-02-11T06:25:03;101484.72;;;0.10;57.29
2675;BME280;1347;42.122;24.746;2023-02-11T06:27:30;101478.41;;;0.80;55.18
2675;BME280;1347;42.122;24.746;2023-02-11T06:29:57;101473.34;;;0.30;52.84
2675;BME280;1347;42.122;24.746;2023-02-11T06:32:25;101475.00;;;-0.29;54.29
2675;BME280;1347;42.122;24.746;2023-02-11T06:34:52;101475.09;;;-0.80;55.51
2675;BME280;1347;42.122;24.746;2023-02-11T06:37:19;101483.53;;;-1.09;56.24
2675;BME280;1347;42.122;24.746;2023-02-11T06:39:46;101487.91;;;-1.37;56.62
2675;BME280;1347;42.122;24.746;2023-02-11T06:42:14;101480.78;;;-1.71;57.62
2675;BME280;1347;42.122;24.746;2023-02-11T06:44:41;101474.94;;;-1.97;58.54
2675;BME280;1347;42.122;24.746;2023-02-11T06:47:09;101479.75;;;-2.10;59.49
2675;BME280;1347;42.122;24.746;2023-02-11T06:49:36;101478.28;;;-2.30;60.48
2675;BME280;1347;42.122;24.746;2023-02-11T06:52:03;101481.13;;;-2.48;61.05
2675;BME280;1347;42.122;24.746;2023-02-11T06:54:30;101476.22;;;-2.63;61.33
2675;BME280;1347;42.122;24.746;2023-02-11T06:56:56;101461.41;;;-2.77;61.73
2675;BME280;1347;42.122;24.746;2023-02-11T06:59:25;101460.69;;;-2.84;62.28
2675;BME280;1347;42.122;24.746;2023-02-11T07:01:52;101469.22;;;-2.87;62.68
2675;BME280;1347;42.122;24.746;2023-02-11T07:04:18;101467.59;;;-2.88;62.80
2675;BME280;1347;42.122;24.746;2023-02-11T07:06:46;101465.38;;;-2.91;63.05
2675;BME280;1347;42.122;24.746;2023-02-11T07:09:13;101460.69;;;-2.84;63.17
2675;BME280;1347;42.122;24.746;2023-02-11T07:11:40;101459.88;;;-2.73;62.65
2675;BME280;1347;42.122;24.746;2023-02-11T07:14:07;101458.00;;;-2.84;62.67
2675;BME280;1347;42.122;24.746;2023-02-11T07:16:35;101462.09;;;-2.81;62.81
2675;BME280;1347;42.122;24.746;2023-02-11T07:19:03;101447.03;;;-2.59;62.28
2675;BME280;1347;42.122;24.746;2023-02-11T07:21:30;101459.06;;;-2.50;61.95
2675;BME280;1347;42.122;24.746;2023-02-11T07:23:57;101458.28;;;-2.10;61.79
2675;BME280;1347;42.122;24.746;2023-02-11T07:26:24;101458.63;;;1.01;57.46
2675;BME280;1347;42.122;24.746;2023-02-11T07:28:51;101457.78;;;5.49;46.83
2675;BME280;1347;42.122;24.746;2023-02-11T07:31:21;101457.25;;;8.71;38.96
2675;BME280;1347;42.122;24.746;2023-02-11T07:33:50;101463.72;;;11.07;35.42
2675;BME280;1347;42.122;24.746;2023-02-11T07:36:18;101443.81;;;12.96;32.30
2675;BME280;1347;42.122;24.746;2023-02-11T07:38:47;101453.56;;;13.83;30.17
2675;BME280;1347;42.122;24.746;2023-02-11T07:41:15;101453.06;;;15.10;28.17
2675;BME280;1347;42.122;24.746;2023-02-11T07:43:43;101455.59;;;15.31;27.68
2675;BME280;1347;42.122;24.746;2023-02-11T07:46:12;101460.19;;;14.55;27.88
2675;BME280;1347;42.122;24.746;2023-02-11T07:48:39;101456.84;;;14.37;27.37
2675;BME280;1347;42.122;24.746;2023-02-11T07:51:10;101451.25;;;12.33;28.64
2675;BME280;1347;42.122;24.746;2023-02-11T07:53:37;101443.41;;;9.83;31.82
2675;BME280;1347;42.122;24.746;2023-02-11T07:56:06;101449.84;;;9.16;32.97
2675;BME280;1347;42.122;24.746;2023-02-11T07:58:33;101442.34;;;8.77;33.52
2675;BME280;1347;42.122;24.746;2023-02-11T08:01:01;101441.28;;;8.15;34.30
2675;BME280;1347;42.122;24.746;2023-02-11T08:03:29;101452.34;;;8.60;34.26
2675;BME280;1347;42.122;24.746;2023-02-11T08:05:56;101445.44;;;9.07;33.72
2675;BME280;1347;42.122;24.746;2023-02-11T08:08:26;101447.63;;;10.46;32.51
2675;BME280;1347;42.122;24.746;2023-02-11T08:10:53;101454.19;;;13.56;29.62
2675;BME280;1347;42.122;24.746;2023-02-11T08:13:20;101441.81;;;16.44;27.28
2675;BME280;1347;42.122;24.746;2023-02-11T08:15:46;101444.97;;;18.67;25.24
2675;BME280;1347;42.122;24.746;2023-02-11T08:18:13;101442.41;;;20.10;23.75
2675;BME280;1347;42.122;24.746;2023-02-11T08:20:40;101440.63;;;21.68;22.50
2675;BME280;1347;42.122;24.746;2023-02-11T08:23:07;101437.47;;;22.06;22.00
2675;BME280;1347;42.122;24.746;2023-02-11T08:25:35;101438.66;;;22.19;21.79
2675;BME280;1347;42.122;24.746;2023-02-11T08:28:02;101429.31;;;22.64;21.34
2675;BME280;1347;42.122;24.746;2023-02-11T08:30:29;101416.69;;;24.15;20.46
2675;BME280;1347;42.122;24.746;2023-02-11T08:32:56;101423.59;;;25.09;19.88
2675;BME280;1347;42.122;24.746;2023-02-11T08:35:23;101423.53;;;25.66;19.57
2675;BME280;1347;42.122;24.746;2023-02-11T08:37:50;101414.50;;;27.85;18.61
2675;BME280;1347;42.122;24.746;2023-02-11T08:40:20;101411.00;;;28.10;18.92
2675;BME280;1347;42.122;24.746;2023-02-11T08:42:49;101413.34;;;30.09;17.94
2675;BME280;1347;42.122;24.746;2023-02-11T08:45:16;101407.53;;;30.99;17.10
2675;BME280;1347;42.122;24.746;2023-02-11T08:47:43;101405.38;;;31.53;16.97
2675;BME280;1347;42.122;24.746;2023-02-11T08:50:09;101400.06;;;30.84;16.79
2675;BME280;1347;42.122;24.746;2023-02-11T08:52:36;101399.03;;;31.39;16.43
2675;BME280;1347;42.122;24.746;2023-02-11T08:55:04;101391.50;;;31.45;16.10
2675;BME280;1347;42.122;24.746;2023-02-11T08:57:31;101395.72;;;29.57;16.85
2675;BME280;1347;42.122;24.746;2023-02-11T08:59:59;101390.75;;;28.85;17.00
2675;BME280;1347;42.122;24.746;2023-02-11T09:02:26;101388.06;;;28.53;17.11
2675;BME280;1347;42.122;24.746;2023-02-11T09:04:53;101387.56;;;29.59;17.16
2675;BME280;1347;42.122;24.746;2023-02-11T09:07:20;101390.31;;;29.38;16.79
2675;BME280;1347;42.122;24.746;2023-02-11T09:09:47;101384.25;;;28.72;17.25
2675;BME280;1347;42.122;24.746;2023-02-11T09:12:13;101389.06;;;29.39;17.03
2675;BME280;1347;42.122;24.746;2023-02-11T09:14:40;101370.34;;;27.95;17.92
2675;BME280;1347;42.122;24.746;2023-02-11T09:17:09;101366.44;;;27.43;18.15
2675;BME280;1347;42.122;24.746;2023-02-11T09:19:35;101374.34;;;26.21;17.74
2675;BME280;1347;42.122;24.746;2023-02-11T09:22:02;101379.06;;;24.80;18.54
2675;BME280;1347;42.122;24.746;2023-02-11T09:24:29;101369.25;;;23.97;19.16
2675;BME280;1347;42.122;24.746;2023-02-11T09:26:56;101367.00;;;22.60;19.57
2675;BME280;1347;42.122;24.746;2023-02-11T09:29:23;101360.41;;;22.15;20.17
2675;BME280;1347;42.122;24.746;2023-02-11T09:31:50;101353.56;;;22.30;20.01
2675;BME280;1347;42.122;24.746;2023-02-11T09:34:18;101351.19;;;24.97;18.85
2675;BME280;1347;42.122;24.746;2023-02-11T09:36:45;101349.50;;;25.76;18.65
2675;BME280;1347;42.122;24.746;2023-02-11T09:39:14;101348.28;;;26.96;17.69
2675;BME280;1347;42.122;24.746;2023-02-11T09:42:06;101341.69;;;27.67;16.96
2675;BME280;1347;42.122;24.746;2023-02-11T09:44:37;101337.91;;;27.25;17.49
2675;BME280;1347;42.122;24.746;2023-02-11T09:47:12;101326.44;;;25.65;17.86
2675;BME280;1347;42.122;24.746;2023-02-11T09:49:49;101332.03;;;23.56;18.83
2675;BME280;1347;42.122;24.746;2023-02-11T09:52:23;101321.38;;;22.85;19.36
2675;BME280;1347;42.122;24.746;2023-02-11T09:54:54;101322.06;;;23.55;19.23
2675;BME280;1347;42.122;24.746;2023-02-11T09:57:24;101314.84;;;23.54;19.29
2675;BME280;1347;42.122;24.746;2023-02-11T09:59:52;101299.28;;;22.38;19.77
2675;BME280;1347;42.122;24.746;2023-02-11T10:02:22;101284.50;;;22.34;19.67
2675;BME280;1347;42.122;24.746;2023-02-11T10:05:20;101280.25;;;21.94;19.97
2675;BME280;1347;42.122;24.746;2023-02-11T10:07:56;101284.19;;;20.30;20.25
2675;BME280;1347;42.122;24.746;2023-02-11T10:10:34;101266.81;;;19.17;21.96
2675;BME280;1347;42.122;24.746;2023-02-11T10:13:21;101255.00;;;19.30;22.02
2675;BME280;1347;42.122;24.746;2023-02-11T10:15:57;101255.28;;;21.13;20.70
2675;BME280;1347;42.122;24.746;2023-02-11T10:18:44;101247.38;;;22.96;20.34
2675;BME280;1347;42.122;24.746;2023-02-11T10:21:19;101252.03;;;23.92;18.67
2675;BME280;1347;42.122;24.746;2023-02-11T10:23:51;101246.63;;;24.42;18.87
2675;BME280;1347;42.122;24.746;2023-02-11T10:26:20;101243.09;;;24.35;18.61
2675;BME280;1347;42.122;24.746;2023-02-11T10:28:50;101232.09;;;21.58;19.86
2675;BME280;1347;42.122;24.746;2023-02-11T10:31:21;101219.41;;;21.29;20.28
2675;BME280;1347;42.122;24.746;2023-02-11T10:33:53;101215.44;;;21.16;20.26
2675;BME280;1347;42.122;24.746;2023-02-11T10:36:27;101204.66;;;20.40;20.85
2675;BME280;1347;42.122;24.746;2023-02-11T10:38:55;101203.63;;;19.13;20.87
2675;BME280;1347;42.122;24.746;2023-02-11T10:41:26;101201.19;;;17.27;21.94
2675;BME280;1347;42.122;24.746;2023-02-11T10:43:57;101194.28;;;17.70;21.97
2675;BME280;1347;42.122;24.746;2023-02-11T10:46:29;101192.50;;;16.56;22.38
2675;BME280;1347;42.122;24.746;2023-02-11T10:48:57;101180.94;;;16.74;22.55
2675;BME280;1347;42.122;24.746;2023-02-11T10:51:28;101179.97;;;18.01;22.12
2675;BME280;1347;42.122;24.746;2023-02-11T10:54:11;101179.16;;;18.38;21.59
2675;BME280;1347;42.122;24.746;2023-02-11T10:56:45;101176.41;;;17.41;22.21
2675;BME280;1347;42.122;24.746;2023-02-11T10:59:18;101172.06;;;18.41;21.12
2675;BME280;1347;42.122;24.746;2023-02-11T11:01:49;101162.53;;;17.38;21.86
2675;BME280;1347;42.122;24.746;2023-02-11T11:04:32;101155.69;;;16.33;22.66
2675;BME280;1347;42.122;24.746;2023-02-11T11:07:12;101146.22;;;16.57;22.87
2675;BME280;1347;42.122;24.746;2023-02-11T11:09:47;101146.97;;;16.77;23.17
2675;BME280;1347;42.122;24.746;2023-02-11T11:12:24;101141.75;;;15.65;23.66
2675;BME280;1347;42.122;24.746;2023-02-11T11:14:53;101130.38;;;14.18;24.86
2675;BME280;1347;42.122;24.746;2023-02-11T11:17:20;101115.69;;;13.98;25.21
2675;BME280;1347;42.122;24.746;2023-02-11T11:19:47;101119.63;;;14.28;24.44
2675;BME280;1347;42.122;24.746;2023-02-11T11:22:21;101119.63;;;14.13;24.54
2675;BME280;1347;42.122;24.746;2023-02-11T11:24:48;101112.84;;;14.89;24.11
2675;BME280;1347;42.122;24.746;2023-02-11T11:27:20;101095.63;;;16.83;21.84
2675;BME280;1347;42.122;24.746;2023-02-11T11:29:51;101099.75;;;17.86;21.24
2675;BME280;1347;42.122;24.746;2023-02-11T11:32:21;101092.00;;;18.06;21.28
2675;BME280;1347;42.122;24.746;2023-02-11T11:34:53;101086.63;;;17.83;20.87
2675;BME280;1347;42.122;24.746;2023-02-11T11:37:26;101090.63;;;16.66;21.95
2675;BME280;1347;42.122;24.746;2023-02-11T11:39:56;101080.19;;;16.82;21.24
2675;BME280;1347;42.122;24.746;2023-02-11T11:42:26;101077.31;;;17.64;21.48
2675;BME280;1347;42.122;24.746;2023-02-11T11:44:59;101069.09;;;18.60;20.72
2675;BME280;1347;42.122;24.746;2023-02-11T11:47:35;101069.59;;;17.51;21.69
2675;BME280;1347;42.122;24.746;2023-02-11T11:50:17;101065.06;;;15.62;22.85
2675;BME280;1347;42.122;24.746;2023-02-11T11:52:51;101054.06;;;14.53;23.45
2675;BME280;1347;42.122;24.746;2023-02-11T11:55:21;101053.28;;;13.34;24.30
2675;BME280;1347;42.122;24.746;2023-02-11T11:57:50;101043.25;;;12.25;24.79
2675;BME280;1347;42.122;24.746;2023-02-11T12:00:20;101042.53;;;11.92;24.87
2675;BME280;1347;42.122;24.746;2023-02-11T12:05:53;101032.97;;;12.10;25.02
2675;BME280;1347;42.122;24.746;2023-02-11T12:08:36;101035.22;;;13.64;23.96
2675;BME280;1347;42.122;24.746;2023-02-11T12:11:14;101027.63;;;15.06;22.40
2675;BME280;1347;42.122;24.746;2023-02-11T12:13:52;101028.84;;;17.88;21.30
2675;BME280;1347;42.122;24.746;2023-02-11T12:16:30;101035.03;;;19.50;20.01
2675;BME280;1347;42.122;24.746;2023-02-11T12:19:24;101023.59;;;20.36;19.56
2675;BME280;1347;42.122;24.746;2023-02-11T12:22:05;101017.63;;;19.99;19.07
2675;BME280;1347;42.122;24.746;2023-02-11T12:24:52;101005.63;;;19.48;19.48
2675;BME280;1347;42.122;24.746;2023-02-11T12:27:34;101005.56;;;19.31;19.88
2675;BME280;1347;42.122;24.746;2023-02-11T12:30:17;101002.91;;;19.80;19.43
2675;BME280;1347;42.122;24.746;2023-02-11T12:32:52;101008.47;;;20.55;19.16
2675;BME280;1347;42.122;24.746;2023-02-11T12:35:30;101000.34;;;21.07;18.28
2675;BME280;1347;42.122;24.746;2023-02-11T12:38:22;101000.50;;;20.64;19.28
2675;BME280;1347;42.122;24.746;2023-02-11T12:41:03;101000.13;;;21.53;18.56
2675;BME280;1347;42.122;24.746;2023-02-11T12:43:37;101000.13;;;22.53;17.94
2675;BME280;1347;42.122;24.746;2023-02-11T12:46:17;101002.59;;;22.85;17.64
2675;BME280;1347;42.122;24.746;2023-02-11T12:49:03;100990.00;;;21.77;17.79
2675;BME280;1347;42.122;24.746;2023-02-11T12:51:44;100993.22;;;22.27;17.50
2675;BME280;1347;42.122;24.746;2023-02-11T12:54:18;100983.00;;;20.42;18.28
2675;BME280;1347;42.122;24.746;2023-02-11T12:56:51;100983.00;;;19.96;18.80
2675;BME280;1347;42.122;24.746;2023-02-11T12:59:31;100990.81;;;19.20;19.15
2675;BME280;1347;42.122;24.746;2023-02-11T13:02:03;100978.22;;;18.06;19.81
2675;BME280;1347;42.122;24.746;2023-02-11T13:04:38;100970.00;;;16.42;20.79
2675;BME280;1347;42.122;24.746;2023-02-11T13:07:11;100969.75;;;15.75;21.38
2675;BME280;1347;42.122;24.746;2023-02-11T13:09:44;100966.91;;;14.36;21.84
2675;BME280;1347;42.122;24.746;2023-02-11T13:12:16;100969.78;;;13.46;22.79
2675;BME280;1347;42.122;24.746;2023-02-11T13:15:03;100961.47;;;12.74;23.08
2675;BME280;1347;42.122;24.746;2023-02-11T13:17:35;100949.72;;;11.52;24.20
2675;BME280;1347;42.122;24.746;2023-02-11T13:20:17;100951.50;;;11.24;24.69
2675;BME280;1347;42.122;24.746;2023-02-11T13:22:51;100951.16;;;10.92;24.87
2675;BME280;1347;42.122;24.746;2023-02-11T13:25:29;100945.34;;;10.31;25.15
2675;BME280;1347;42.122;24.746;2023-02-11T13:28:05;100937.19;;;10.23;24.89